createdAt,value
2018-01-03T00:00:28.483Z,7.60
2018-01-03T00:02:58.306Z,7.60
2018-01-03T00:05:27.902Z,7.60
2018-01-03T00:08:15.111Z,7.60
2018-01-03T00:10:49.832Z,7.60
2018-01-03T00:13:18.676Z,7.60
2018-01-03T00:15:47.533Z,7.70
2018-01-03T00:18:17.632Z,7.70
2018-01-03T00:20:46.463Z,7.70
2018-01-03T00:23:16.066Z,7.70
2018-01-03T00:25:45.654Z,7.70
2018-01-03T00:28:14.490Z,7.70
2018-01-03T00:30:43.329Z,7.70
2018-01-03T00:33:12.189Z,7.70
2018-01-03T00:35:41.018Z,7.70
2018-01-03T00:38:09.833Z,7.70
2018-01-03T00:40:39.436Z,7.70
2018-01-03T00:43:08.260Z,7.70
2018-01-03T00:45:37.112Z,7.70
2018-01-03T00:48:06.692Z,7.70
2018-01-03T00:50:35.528Z,7.70
2018-01-03T00:53:04.343Z,7.70
2018-01-03T00:55:33.222Z,7.80
2018-01-03T00:58:02.041Z,7.80
2018-01-03T01:00:30.893Z,7.80
2018-01-03T01:02:59.730Z,7.80
2018-01-03T01:05:28.564Z,7.80
2018-01-03T01:07:57.380Z,7.90
2018-01-03T01:10:26.241Z,7.90
2018-01-03T01:12:55.078Z,7.90
2018-01-03T01:15:23.923Z,7.90
2018-01-03T01:17:52.742Z,8.00
2018-01-03T01:20:21.829Z,8.00
2018-01-03T01:22:51.429Z,8.00
2018-01-03T01:25:21.044Z,8.10
2018-01-03T01:27:50.653Z,8.10
2018-01-03T01:30:20.340Z,8.10
2018-01-03T01:32:49.183Z,8.10
2018-01-03T01:35:18.009Z,8.20
2018-01-03T01:37:46.916Z,8.20
2018-01-03T01:40:15.748Z,8.30
2018-01-03T01:42:44.585Z,8.30
2018-01-03T01:45:13.416Z,8.40
2018-01-03T01:47:42.796Z,8.40
2018-01-03T01:50:12.427Z,8.40
2018-01-03T01:52:41.242Z,8.30
2018-01-03T01:55:10.070Z,8.40
2018-01-03T01:57:39.669Z,8.40
2018-01-03T02:00:11.205Z,8.50
2018-01-03T02:02:40.070Z,8.40
2018-01-03T02:05:08.885Z,8.40
2018-01-03T02:07:37.709Z,8.40
2018-01-03T02:10:07.337Z,8.40
2018-01-03T02:12:36.170Z,8.40
2018-01-03T02:15:05.013Z,8.30
2018-01-03T02:17:33.823Z,8.30
2018-01-03T02:20:02.672Z,8.30
2018-01-03T02:22:32.275Z,8.30
2018-01-03T02:25:01.866Z,8.30
2018-01-03T02:27:32.210Z,8.30
2018-01-03T02:30:01.834Z,8.40
2018-01-03T02:32:30.646Z,8.30
2018-01-03T02:34:59.468Z,8.40
2018-01-03T02:37:29.594Z,8.40
2018-01-03T02:39:58.423Z,8.30
2018-01-03T02:42:27.268Z,8.40
2018-01-03T02:44:56.109Z,8.40
2018-01-03T02:47:24.944Z,8.40
2018-01-03T02:49:53.769Z,8.40
2018-01-03T02:52:23.959Z,8.40
2018-01-03T02:54:52.787Z,8.40
2018-01-03T02:57:21.628Z,8.40
2018-01-03T02:59:50.466Z,8.40
2018-01-03T03:02:19.279Z,8.40
2018-01-03T03:04:48.145Z,8.40
2018-01-03T03:07:16.988Z,8.40
2018-01-03T03:09:45.841Z,8.40
2018-01-03T03:12:14.661Z,8.50
2018-01-03T03:14:43.498Z,8.50
2018-01-03T03:17:12.317Z,8.50
2018-01-03T03:19:41.524Z,8.50
2018-01-03T03:22:10.321Z,8.60
2018-01-03T03:24:39.170Z,8.60
2018-01-03T03:27:08.367Z,8.70
2018-01-03T03:29:37.192Z,8.70
2018-01-03T03:32:06.011Z,8.70
2018-01-03T03:34:35.591Z,8.80
2018-01-03T03:37:04.428Z,8.80
2018-01-03T03:39:33.367Z,8.90
2018-01-03T03:42:02.254Z,8.90
2018-01-03T03:44:31.082Z,9.00
2018-01-03T03:46:59.909Z,9.00
2018-01-03T03:49:28.750Z,9.10
2018-01-03T03:51:58.348Z,9.20
2018-01-03T03:54:27.177Z,9.20
2018-01-03T03:56:56.017Z,9.30
2018-01-03T03:59:24.855Z,9.20
2018-01-03T04:01:53.699Z,9.20
2018-01-03T04:04:22.538Z,9.20
2018-01-03T04:06:51.367Z,9.20
2018-01-03T04:09:21.029Z,9.20
2018-01-03T04:11:49.864Z,9.30
2018-01-03T04:14:18.695Z,9.30
2018-01-03T04:16:47.637Z,9.40
2018-01-03T04:19:16.491Z,9.50
2018-01-03T04:21:45.320Z,9.50
2018-01-03T04:24:14.158Z,9.60
2018-01-03T04:26:42.990Z,9.60
2018-01-03T04:29:12.594Z,9.70
2018-01-03T04:31:42.247Z,9.70
2018-01-03T04:34:11.077Z,9.60
2018-01-03T04:36:41.110Z,9.80
2018-01-03T04:39:09.946Z,9.80
2018-01-03T04:41:38.779Z,9.80
2018-01-03T04:44:08.405Z,9.80
2018-01-03T04:46:37.998Z,9.80
2018-01-03T04:49:07.666Z,9.90
2018-01-03T04:51:36.489Z,9.80
2018-01-03T04:54:06.081Z,9.20
2018-01-03T04:56:34.917Z,9.20
2018-01-03T04:59:03.746Z,9.10
2018-01-03T05:01:32.584Z,9.00
2018-01-03T05:04:01.394Z,9.00
2018-01-03T05:06:30.251Z,8.90
2018-01-03T05:08:59.071Z,8.80
2018-01-03T05:11:27.903Z,8.70
2018-01-03T05:13:58.241Z,8.60
2018-01-03T05:16:27.842Z,8.60
2018-01-03T05:18:57.444Z,8.60
2018-01-03T05:21:26.380Z,8.60
2018-01-03T05:23:55.169Z,8.60
2018-01-03T05:26:24.009Z,8.60
2018-01-03T05:28:52.826Z,8.60
2018-01-03T05:31:21.661Z,8.70
2018-01-03T05:33:53.454Z,8.70
2018-01-03T05:36:22.286Z,8.70
2018-01-03T05:38:51.122Z,8.70
2018-01-03T05:41:19.927Z,8.70
2018-01-03T05:43:48.763Z,8.80
2018-01-03T05:46:17.611Z,8.80
2018-01-03T05:48:46.427Z,8.90
2018-01-03T05:51:15.265Z,8.90
2018-01-03T05:53:44.129Z,8.90
2018-01-03T05:56:13.710Z,9.10
2018-01-03T05:58:42.528Z,9.00
2018-01-03T06:01:12.158Z,9.20
2018-01-03T06:03:41.226Z,9.10
2018-01-03T06:06:10.810Z,9.20
2018-01-03T06:08:40.877Z,9.20
2018-01-03T06:11:09.735Z,9.10
2018-01-03T06:13:38.560Z,9.20
2018-01-03T06:16:07.400Z,9.20
2018-01-03T06:18:36.234Z,9.30
2018-01-03T06:21:05.054Z,9.30
2018-01-03T06:23:34.641Z,9.40
2018-01-03T06:26:03.483Z,9.30
2018-01-03T06:28:33.062Z,9.40
2018-01-03T06:31:02.666Z,9.50
2018-01-03T06:33:32.302Z,9.50
2018-01-03T06:36:01.106Z,9.40
2018-01-03T06:38:29.947Z,9.40
2018-01-03T06:40:59.562Z,9.40
2018-01-03T06:43:29.374Z,9.40
2018-01-03T06:45:58.966Z,9.40
2018-01-03T06:48:27.789Z,9.40
2018-01-03T06:50:56.834Z,9.50
2018-01-03T06:53:25.685Z,9.50
2018-01-03T06:55:54.518Z,9.50
2018-01-03T06:58:23.354Z,9.50
2018-01-03T07:00:52.189Z,9.50
2018-01-03T07:03:21.045Z,9.50
2018-01-03T07:05:49.840Z,9.50
2018-01-03T07:08:19.517Z,9.40
2018-01-03T07:10:48.331Z,9.30
2018-01-03T07:13:17.185Z,9.00
2018-01-03T07:15:46.782Z,8.80
2018-01-03T07:18:15.597Z,8.80
2018-01-03T07:20:44.435Z,8.80
2018-01-03T07:23:13.255Z,8.70
2018-01-03T07:25:42.103Z,8.70
2018-01-03T07:28:11.679Z,8.80
2018-01-03T07:30:40.539Z,8.70
2018-01-03T07:33:09.377Z,8.80
2018-01-03T07:35:38.978Z,8.90
2018-01-03T07:38:07.819Z,8.90
2018-01-03T07:40:36.638Z,8.90
2018-01-03T07:43:05.487Z,8.80
2018-01-03T07:45:34.319Z,8.70
2018-01-03T07:48:03.165Z,8.60
2018-01-03T07:50:32.714Z,8.50
2018-01-03T07:53:01.541Z,8.10
2018-01-03T07:55:31.146Z,7.60
2018-01-03T07:57:59.974Z,7.60
2018-01-03T08:00:28.787Z,7.50
2018-01-03T08:02:57.639Z,7.30
2018-01-03T08:05:26.461Z,7.30
2018-01-03T08:07:55.278Z,7.30
2018-01-03T08:10:24.891Z,7.30
2018-01-03T08:12:54.529Z,7.40
2018-01-03T08:15:24.081Z,7.40
2018-01-03T08:17:52.914Z,7.40
2018-01-03T08:20:21.833Z,7.50
2018-01-03T08:22:50.677Z,7.60
2018-01-03T08:25:19.485Z,7.40
2018-01-03T08:27:48.327Z,7.40
2018-01-03T08:30:17.923Z,7.50
2018-01-03T08:32:48.257Z,7.50
2018-01-03T08:35:17.857Z,7.40
2018-01-03T08:37:47.466Z,7.20
2018-01-03T08:40:16.448Z,7.10
2018-01-03T08:42:45.274Z,7.10
2018-01-03T08:45:14.115Z,7.00
2018-01-03T08:47:42.925Z,7.10
2018-01-03T08:50:12.531Z,7.10
2018-01-03T08:52:42.127Z,7.20
2018-01-03T08:55:10.966Z,7.20
2018-01-03T08:57:39.805Z,7.30
2018-01-03T09:00:08.638Z,7.40
2018-01-03T09:02:37.470Z,7.60
2018-01-03T09:05:06.298Z,7.60
2018-01-03T09:07:35.914Z,7.80
2018-01-03T09:10:04.736Z,7.70
2018-01-03T09:12:33.643Z,7.70
2018-01-03T09:15:02.461Z,7.70
2018-01-03T09:17:32.060Z,7.80
2018-01-03T09:20:00.892Z,7.70
2018-01-03T09:22:29.770Z,7.80
2018-01-03T09:24:59.367Z,7.60
2018-01-03T09:27:28.221Z,7.60
2018-01-03T09:29:57.069Z,7.50
2018-01-03T09:32:25.924Z,7.50
2018-01-03T09:34:55.522Z,7.60
2018-01-03T09:37:25.108Z,7.70
2018-01-03T09:39:55.142Z,8.00
2018-01-03T09:42:28.851Z,8.40
2018-01-03T09:44:58.445Z,8.70
2018-01-03T09:47:27.290Z,8.70
2018-01-03T09:49:56.124Z,9.00
2018-01-03T09:52:25.005Z,9.30
2018-01-03T09:54:53.850Z,9.90
2018-01-03T09:57:22.699Z,10.10
2018-01-03T09:59:52.315Z,9.40
2018-01-03T10:02:21.918Z,9.20
2018-01-03T10:04:51.551Z,9.00
2018-01-03T10:07:20.402Z,9.00
2018-01-03T10:09:49.214Z,9.00
2018-01-03T10:12:18.080Z,8.80
2018-01-03T10:14:46.905Z,8.80
2018-01-03T10:17:15.763Z,8.80
2018-01-03T10:19:44.605Z,8.70
2018-01-03T10:22:13.445Z,8.70
2018-01-03T10:24:43.080Z,8.50
2018-01-03T10:27:11.927Z,8.50
2018-01-03T10:29:40.766Z,8.60
2018-01-03T10:32:09.599Z,8.60
2018-01-03T10:34:38.435Z,8.60
2018-01-03T10:37:07.298Z,9.00
2018-01-03T10:39:36.887Z,9.10
2018-01-03T10:42:05.729Z,9.10
2018-01-03T10:44:34.580Z,8.80
2018-01-03T10:47:04.197Z,8.40
2018-01-03T10:49:33.842Z,8.40
2018-01-03T10:52:02.682Z,8.40
2018-01-03T10:54:31.518Z,8.40
2018-01-03T10:57:00.361Z,8.30
2018-01-03T10:59:29.202Z,8.40
2018-01-03T11:01:58.046Z,8.40
2018-01-03T11:04:26.875Z,8.30
2018-01-03T11:06:55.881Z,8.30
2018-01-03T11:09:25.816Z,7.90
2018-01-03T11:11:54.657Z,7.90
2018-01-03T11:14:23.522Z,7.80
2018-01-03T11:16:53.112Z,7.40
2018-01-03T11:19:22.053Z,7.40
2018-01-03T11:21:50.949Z,7.30
2018-01-03T11:24:20.561Z,7.20
2018-01-03T11:26:49.400Z,7.20
2018-01-03T11:29:18.261Z,7.20
2018-01-03T11:31:47.181Z,7.10
2018-01-03T11:34:16.550Z,7.10
2018-01-03T11:36:45.912Z,7.10
2018-01-03T11:39:15.534Z,7.00
2018-01-03T11:41:45.126Z,6.90
2018-01-03T11:44:14.758Z,6.90
2018-01-03T11:46:43.605Z,6.80
2018-01-03T11:49:12.455Z,6.80
2018-01-03T11:51:41.335Z,6.80
2018-01-03T11:54:10.189Z,6.80
2018-01-03T11:56:39.830Z,6.80
2018-01-03T11:59:08.194Z,6.70
2018-01-03T12:01:37.769Z,6.60
2018-01-03T12:04:06.607Z,6.50
2018-01-03T12:06:35.436Z,6.50
2018-01-03T12:09:04.282Z,6.50
2018-01-03T12:11:33.149Z,6.50
2018-01-03T12:14:02.763Z,6.40
2018-01-03T12:16:32.538Z,6.50
2018-01-03T12:19:01.368Z,6.40
2018-01-03T12:21:30.220Z,6.40
2018-01-03T12:23:59.568Z,6.50
2018-01-03T12:26:28.394Z,6.50
2018-01-03T12:28:57.248Z,6.50
2018-01-03T12:31:26.086Z,6.50
2018-01-03T12:33:55.697Z,6.50
2018-01-03T12:36:26.050Z,6.50
2018-01-03T12:38:54.857Z,6.50
2018-01-03T12:41:24.022Z,6.50
2018-01-03T12:43:52.838Z,6.50
2018-01-03T12:46:21.707Z,6.50
2018-01-03T12:48:50.555Z,6.60
2018-01-03T12:51:19.439Z,6.60
2018-01-03T12:53:48.300Z,6.60
2018-01-03T12:56:17.137Z,6.60
2018-01-03T12:58:46.723Z,6.60
2018-01-03T13:01:16.174Z,6.60
2018-01-03T13:03:45.021Z,6.60
2018-01-03T13:06:13.847Z,6.60
2018-01-03T13:08:42.703Z,6.70
2018-01-03T13:11:11.542Z,6.60
2018-01-03T13:13:40.415Z,6.60
2018-01-03T13:16:09.259Z,6.60
2018-01-03T13:18:38.102Z,6.60
2018-01-03T13:21:06.932Z,6.70
2018-01-03T13:23:36.565Z,6.70
2018-01-03T13:26:05.416Z,6.60
2018-01-03T13:28:35.018Z,6.70
2018-01-03T13:31:04.614Z,6.80
2018-01-03T13:33:33.448Z,6.70
2018-01-03T13:36:02.298Z,6.70
2018-01-03T13:38:31.161Z,6.80
2018-01-03T13:40:59.983Z,6.70
2018-01-03T13:43:29.617Z,6.70
2018-01-03T13:45:58.445Z,6.70
2018-01-03T13:48:27.297Z,6.80
2018-01-03T13:50:56.156Z,6.80
2018-01-03T13:53:26.691Z,6.90
2018-01-03T13:55:56.293Z,6.90
2018-01-03T13:58:25.874Z,6.90
2018-01-03T14:00:54.738Z,6.90
2018-01-03T14:03:23.575Z,7.00
2018-01-03T14:05:53.207Z,7.00
2018-01-03T14:08:22.150Z,7.00
2018-01-03T14:10:50.972Z,7.10
2018-01-03T14:13:20.578Z,7.20
2018-01-03T14:15:50.186Z,7.30
2018-01-03T14:18:19.828Z,7.30
2018-01-03T14:20:48.695Z,7.30
2018-01-03T14:23:18.274Z,7.30
2018-01-03T14:25:48.933Z,7.30
2018-01-03T14:28:17.736Z,7.30
2018-01-03T14:30:46.565Z,7.30
2018-01-03T14:33:15.407Z,7.30
2018-01-03T14:35:44.246Z,7.40
2018-01-03T14:38:13.094Z,7.40
2018-01-03T14:40:42.718Z,7.30
2018-01-03T14:43:11.542Z,7.30
2018-01-03T14:45:40.381Z,7.30
2018-01-03T14:48:09.255Z,7.30
2018-01-03T14:50:38.098Z,7.40
2018-01-03T14:53:07.418Z,7.40
2018-01-03T14:55:36.269Z,7.40
2018-01-03T14:58:05.874Z,7.40
2018-01-03T15:00:35.461Z,7.40
2018-01-03T15:03:04.303Z,7.30
2018-01-03T15:05:33.142Z,7.40
2018-01-03T15:08:02.877Z,7.30
2018-01-03T15:10:32.503Z,7.30
2018-01-03T15:13:01.354Z,7.30
2018-01-03T15:15:30.178Z,7.20
2018-01-03T15:17:59.034Z,7.20
2018-01-03T15:20:27.870Z,7.20
2018-01-03T15:22:56.695Z,7.20
2018-01-03T15:25:25.603Z,7.20
2018-01-03T15:27:55.184Z,7.30
2018-01-03T15:30:24.834Z,7.30
2018-01-03T15:32:53.679Z,7.30
2018-01-03T15:35:23.281Z,7.30
2018-01-03T15:37:52.901Z,7.20
2018-01-03T15:40:22.502Z,7.20
2018-01-03T15:42:51.395Z,7.20
2018-01-03T15:45:21.002Z,7.20
2018-01-03T15:47:50.627Z,7.20
2018-01-03T15:50:19.473Z,7.10
2018-01-03T15:52:49.131Z,7.20
2018-01-03T15:55:17.969Z,7.10
2018-01-03T15:57:46.818Z,7.10
2018-01-03T16:00:15.673Z,7.00
2018-01-03T16:02:44.767Z,7.00
2018-01-03T16:05:14.405Z,7.10
2018-01-03T16:07:43.303Z,7.00
2018-01-03T16:10:12.875Z,7.00
2018-01-03T16:12:43.194Z,7.00
2018-01-03T16:15:12.849Z,6.90
2018-01-03T16:17:41.679Z,6.90
2018-01-03T16:20:10.531Z,6.90
2018-01-03T16:22:39.379Z,7.00
2018-01-03T16:25:09.010Z,6.90
2018-01-03T16:27:37.852Z,6.80
2018-01-03T16:30:06.696Z,6.90
2018-01-03T16:32:36.358Z,6.80
2018-01-03T16:35:05.251Z,6.80
2018-01-03T16:37:34.072Z,6.90
2018-01-03T16:40:02.962Z,6.90
2018-01-03T16:42:31.806Z,6.90
2018-01-03T16:45:00.636Z,6.90
2018-01-03T16:47:29.490Z,7.00
2018-01-03T16:49:58.844Z,7.00
2018-01-03T16:52:33.473Z,7.00
2018-01-03T16:55:03.500Z,7.10
2018-01-03T16:57:32.342Z,7.00
2018-01-03T17:00:01.261Z,7.10
2018-01-03T17:02:30.089Z,7.20
2018-01-03T17:04:58.910Z,7.30
2018-01-03T17:07:28.072Z,7.30
2018-01-03T17:09:57.698Z,7.40
2018-01-03T17:12:26.577Z,7.30
2018-01-03T17:14:55.386Z,7.40
2018-01-03T17:17:24.254Z,7.40
2018-01-03T17:19:53.845Z,7.30
2018-01-03T17:22:23.479Z,7.20
2018-01-03T17:24:52.334Z,7.20
2018-01-03T17:27:21.206Z,7.30
2018-01-03T17:29:50.156Z,7.30
2018-01-03T17:32:19.025Z,7.30
2018-01-03T17:34:47.889Z,7.30
2018-01-03T17:37:16.703Z,7.30
2018-01-03T17:39:46.356Z,7.40
2018-01-03T17:42:15.190Z,7.40
2018-01-03T17:44:44.789Z,7.50
2018-01-03T17:47:13.629Z,7.50
2018-01-03T17:49:42.479Z,7.60
2018-01-03T17:52:11.307Z,7.60
2018-01-03T17:54:40.882Z,7.50
2018-01-03T17:57:11.054Z,7.50
2018-01-03T17:59:39.891Z,7.40
2018-01-03T18:02:10.043Z,7.10
2018-01-03T18:04:38.909Z,7.10
2018-01-03T18:07:09.028Z,7.00
2018-01-03T18:09:38.654Z,7.00
2018-01-03T18:12:07.494Z,7.00
2018-01-03T18:14:37.258Z,7.10
2018-01-03T18:17:06.122Z,7.10
2018-01-03T18:19:35.753Z,7.20
2018-01-03T18:22:05.355Z,7.20
2018-01-03T18:24:34.266Z,7.10
2018-01-03T18:27:03.116Z,7.20
2018-01-03T18:29:31.992Z,7.30
2018-01-03T18:32:01.707Z,7.40
2018-01-03T18:34:31.494Z,7.40
2018-01-03T18:37:00.480Z,7.50
2018-01-03T18:39:29.669Z,7.60
2018-01-03T18:41:58.631Z,7.70
2018-01-03T18:44:27.489Z,7.70
2018-01-03T18:46:57.137Z,7.80
2018-01-03T18:49:26.063Z,7.70
2018-01-03T18:51:54.975Z,7.80
2018-01-03T18:54:24.600Z,7.70
2018-01-03T18:56:54.124Z,7.60
2018-01-03T18:59:22.945Z,7.70
2018-01-03T19:01:51.818Z,7.70
2018-01-03T19:04:20.692Z,7.70
2018-01-03T19:06:49.610Z,7.70
2018-01-03T19:09:18.501Z,7.80
2018-01-03T19:11:47.406Z,7.80
2018-01-03T19:14:16.290Z,7.90
2018-01-03T19:16:45.126Z,7.90
2018-01-03T19:19:14.002Z,7.90
2018-01-03T19:21:43.636Z,7.90
2018-01-03T19:24:12.462Z,7.80
2018-01-03T19:26:41.337Z,7.90
2018-01-03T19:29:11.043Z,7.90
2018-01-03T19:31:39.942Z,7.80
2018-01-03T19:34:08.809Z,7.90
2018-01-03T19:36:37.785Z,7.90
2018-01-03T19:39:06.610Z,7.80
2018-01-03T19:41:35.583Z,7.80
2018-01-03T19:44:04.453Z,7.70
2018-01-03T19:46:35.107Z,7.70
2018-01-03T19:49:06.004Z,7.70
2018-01-03T19:51:36.560Z,7.70
2018-01-03T19:54:06.478Z,7.70
2018-01-03T19:56:35.596Z,7.80
2018-01-03T19:59:04.549Z,7.80
2018-01-03T20:01:34.673Z,7.80
2018-01-03T20:04:05.823Z,7.80
2018-01-03T20:06:36.189Z,7.80
2018-01-03T20:09:06.951Z,7.80
2018-01-03T20:11:38.299Z,7.80
2018-01-03T20:14:07.910Z,7.80
2018-01-03T20:16:37.889Z,7.80
2018-01-03T20:19:10.308Z,7.90
2018-01-03T20:21:39.656Z,7.90
2018-01-03T20:24:10.023Z,7.90
2018-01-03T20:26:39.835Z,7.90
2018-01-03T20:29:10.253Z,7.80
2018-01-03T20:31:41.203Z,7.90
2018-01-03T20:34:12.150Z,7.90
2018-01-03T20:36:41.367Z,7.90
2018-01-03T20:39:11.677Z,7.90
2018-01-03T20:41:41.716Z,7.90
2018-01-03T20:44:10.838Z,7.90
2018-01-03T20:46:39.866Z,7.90
2018-01-03T20:49:10.542Z,8.00
2018-01-03T20:51:40.621Z,8.00
2018-01-03T20:54:17.707Z,8.00
2018-01-03T20:56:47.879Z,8.10
2018-01-03T20:59:18.971Z,8.10
2018-01-03T21:01:48.033Z,8.10
2018-01-03T21:04:18.697Z,8.00
2018-01-03T21:06:49.523Z,8.00
2018-01-03T21:09:19.610Z,7.80
2018-01-03T21:11:49.672Z,7.70
2018-01-03T21:14:20.450Z,7.60
2018-01-03T21:16:50.763Z,7.60
2018-01-03T21:19:20.763Z,7.60
2018-01-03T21:21:51.986Z,7.60
2018-01-03T21:24:21.186Z,7.70
2018-01-03T21:26:51.298Z,7.50
2018-01-03T21:29:20.360Z,7.50
2018-01-03T21:31:49.685Z,7.50
2018-01-03T21:34:18.707Z,7.50
2018-01-03T21:36:47.729Z,7.40
2018-01-03T21:39:16.668Z,7.40
2018-01-03T21:41:46.433Z,7.50
2018-01-03T21:44:15.326Z,7.40
2018-01-03T21:46:44.240Z,7.50
2018-01-03T21:49:13.360Z,7.50
2018-01-03T21:51:43.021Z,7.40
2018-01-03T21:54:12.733Z,7.40
2018-01-03T21:56:41.618Z,7.50
2018-01-03T21:59:10.938Z,7.40
2018-01-03T22:01:39.811Z,7.30
2018-01-03T22:04:08.988Z,7.30
2018-01-03T22:06:38.692Z,7.30
2018-01-03T22:09:08.675Z,7.30
2018-01-03T22:11:37.745Z,7.20
2018-01-03T22:14:07.867Z,7.30
2018-01-03T22:16:36.741Z,7.30
2018-01-03T22:19:05.591Z,7.30
2018-01-03T22:21:35.247Z,7.40
2018-01-03T22:24:04.086Z,7.30
2018-01-03T22:26:33.838Z,7.40
2018-01-03T22:29:02.719Z,7.40
2018-01-03T22:31:32.332Z,7.40
2018-01-03T22:34:01.191Z,7.30
2018-01-03T22:36:30.027Z,7.40
2018-01-03T22:38:58.874Z,7.40
2018-01-03T22:41:27.700Z,7.40
2018-01-03T22:43:56.562Z,7.30
2018-01-03T22:46:26.146Z,7.20
2018-01-03T22:48:55.000Z,7.20
2018-01-03T22:51:23.839Z,7.20
2018-01-03T22:53:53.481Z,7.10
2018-01-03T22:56:22.326Z,7.10
2018-01-03T22:58:51.175Z,7.10
2018-01-03T23:01:20.030Z,7.10
2018-01-03T23:03:49.675Z,7.00
2018-01-03T23:06:19.236Z,7.00
2018-01-03T23:08:48.072Z,7.10
2018-01-03T23:11:16.932Z,7.10
2018-01-03T23:13:45.816Z,7.10
2018-01-03T23:16:15.427Z,7.10
2018-01-03T23:18:45.086Z,7.00
2018-01-03T23:21:14.642Z,7.00
2018-01-03T23:23:43.554Z,7.00
2018-01-03T23:26:12.955Z,7.10
2018-01-03T23:28:41.791Z,7.10
2018-01-03T23:31:10.997Z,7.10
2018-01-03T23:33:39.803Z,7.10
2018-01-03T23:36:09.312Z,7.10
2018-01-03T23:38:38.161Z,7.20
2018-01-03T23:41:07.007Z,7.20
2018-01-03T23:43:35.924Z,7.30
2018-01-03T23:46:05.554Z,7.40
2018-01-03T23:48:35.129Z,7.40
2018-01-03T23:51:05.145Z,7.40
2018-01-03T23:53:34.763Z,7.40
2018-01-03T23:56:04.374Z,7.40
2018-01-03T23:58:33.245Z,7.40
